Time;durP1;ratioP1;P1;durP2;ratioP2;P2;SDS_P1;SDS_P2;PMS_P1;PMS_P2;Temp;Humidity;BMP_temperature;BMP_pressure;BME280_temperature;BME280_humidity;BME280_pressure;Samples;Min_cycle;Max_cycle;Signal;HPM_P1;HPM_P2
2022/03/08 00:01:37;;;;;;;28.75;16.67;;;-1.40;1.00;;;;;;7364334;19;20018;-59
2022/03/08 00:04:07;;;;;;;28.13;15.68;;;-1.40;1.00;;;;;;7381314;19;20017;-58
2022/03/08 00:06:40;;;;;;;28.55;16.15;;;-1.50;1.00;;;;;;7367406;19;20029;-59
2022/03/08 00:09:10;;;;;;;29.15;16.85;;;-1.50;1.00;;;;;;7365415;19;20003;-59
2022/03/08 00:11:40;;;;;;;26.55;15.75;;;-1.50;1.00;;;;;;7360459;19;20010;-59
2022/03/08 00:14:10;;;;;;;26.25;15.90;;;-1.50;1.00;;;;;;7362651;19;20010;-59
2022/03/08 00:16:39;;;;;;;28.58;16.33;;;-1.50;1.00;;;;;;7366577;19;20405;-59
2022/03/08 00:19:10;;;;;;;33.40;16.25;;;-1.50;1.00;;;;;;7385587;19;20006;-59
2022/03/08 00:21:42;;;;;;;27.75;15.98;;;-1.50;1.00;;;;;;7361514;19;20011;-58
2022/03/08 00:24:12;;;;;;;26.60;16.08;;;-1.40;1.00;;;;;;7362247;19;20013;-58
2022/03/08 00:26:42;;;;;;;25.55;16.10;;;-1.40;1.00;;;;;;7365818;19;20035;-59
2022/03/08 00:29:12;;;;;;;24.73;16.05;;;-1.50;1.00;;;;;;7361940;19;20017;-58
2022/03/08 00:31:42;;;;;;;25.15;16.08;;;-1.60;1.00;;;;;;7360772;19;20014;-59
2022/03/08 00:34:12;;;;;;;28.83;15.18;;;-1.60;1.00;;;;;;7384864;19;20014;-58
2022/03/08 00:36:44;;;;;;;26.92;14.75;;;-1.60;1.00;;;;;;7365582;19;20085;-58
2022/03/08 00:39:14;;;;;;;26.63;15.82;;;-1.60;1.00;;;;;;7364294;19;20013;-59
2022/03/08 00:41:44;;;;;;;27.30;15.05;;;-1.50;1.00;;;;;;7364955;19;20541;-58
2022/03/08 00:44:14;;;;;;;25.23;15.10;;;-1.50;1.00;;;;;;7360805;19;20020;-59
2022/03/08 00:46:45;;;;;;;26.13;15.93;;;-1.50;1.00;;;;;;7366309;19;20467;-59
2022/03/08 00:49:15;;;;;;;27.48;15.15;;;-1.50;1.00;;;;;;7386536;19;20345;-58
2022/03/08 00:51:48;;;;;;;26.35;15.23;;;-1.50;1.00;;;;;;7363416;19;20078;-58
2022/03/08 00:54:18;;;;;;;29.90;14.68;;;-1.60;1.00;;;;;;7357182;19;20094;-60
2022/03/08 00:56:48;;;;;;;25.55;14.77;;;-1.60;1.00;;;;;;7364583;19;20006;-60
2022/03/08 00:59:18;;;;;;;25.77;15.15;;;-1.60;1.00;;;;;;7365836;19;20458;-58
2022/03/08 01:01:48;;;;;;;25.73;15.18;;;-1.60;1.00;;;;;;7364372;19;20532;-59
2022/03/08 01:04:18;;;;;;;24.52;14.75;;;-1.70;1.00;;;;;;7377346;19;20526;-58
2022/03/08 01:06:50;;;;;;;25.98;14.50;;;-1.80;1.00;;;;;;7364047;19;20082;-59
2022/03/08 01:09:20;;;;;;;24.42;14.65;;;-1.80;1.00;;;;;;7362000;19;20462;-59
2022/03/08 01:11:50;;;;;;;26.35;15.40;;;-1.80;1.00;;;;;;7365644;19;20020;-59
2022/03/08 01:14:20;;;;;;;29.23;15.15;;;-1.80;1.00;;;;;;7356190;19;20030;-58
2022/03/08 01:16:50;;;;;;;24.35;14.18;;;-1.80;1.00;;;;;;7364566;19;20018;-60
2022/03/08 01:19:20;;;;;;;26.13;15.45;;;-1.90;1.00;;;;;;7385412;19;20034;-58
2022/03/08 01:21:52;;;;;;;27.05;15.57;;;-1.80;1.00;;;;;;7366375;19;20444;-59
2022/03/08 01:24:22;;;;;;;24.45;15.00;;;-1.80;1.00;;;;;;7356276;19;20074;-58
2022/03/08 01:26:52;;;;;;;27.02;15.15;;;-1.90;1.00;;;;;;7361508;19;20419;-59
2022/03/08 01:29:23;;;;;;;24.88;14.43;;;-1.90;1.00;;;;;;7363145;19;20009;-59
2022/03/08 01:31:53;;;;;;;26.40;15.18;;;-2.00;1.00;;;;;;7364344;19;20064;-59
2022/03/08 01:34:23;;;;;;;26.52;14.77;;;-2.00;1.00;;;;;;7377382;19;20010;-59
2022/03/08 01:36:56;;;;;;;28.33;15.25;;;-2.00;1.00;;;;;;7359628;19;20536;-59
2022/03/08 01:39:26;;;;;;;30.73;14.95;;;-1.90;1.00;;;;;;7361171;19;20007;-59
2022/03/08 01:41:56;;;;;;;26.75;15.02;;;-1.90;1.00;;;;;;7363579;19;20014;-59
2022/03/08 01:44:26;;;;;;;23.55;14.05;;;-1.90;1.00;;;;;;7357428;19;20014;-59
2022/03/08 01:46:56;;;;;;;25.90;15.20;;;-1.90;1.00;;;;;;7363657;19;20010;-59
2022/03/08 01:49:26;;;;;;;24.98;14.30;;;-1.90;1.00;;;;;;7383641;19;20098;-59
2022/03/08 01:51:59;;;;;;;25.23;14.52;;;-1.90;1.00;;;;;;7362615;19;20021;-59
2022/03/08 01:54:29;;;;;;;24.25;13.88;;;-1.90;1.00;;;;;;7358608;19;20326;-59
2022/03/08 01:56:59;;;;;;;24.02;14.05;;;-2.00;1.00;;;;;;7364149;19;20027;-58
2022/03/08 01:59:29;;;;;;;25.83;14.30;;;-2.10;1.00;;;;;;7363414;19;20077;-59
2022/03/08 02:01:58;;;;;;;24.83;14.02;;;-2.10;1.00;;;;;;7363116;19;20051;-59
2022/03/08 02:04:29;;;;;;;23.50;13.75;;;-2.10;1.00;;;;;;7378809;19;20018;-59
2022/03/08 02:07:04;;;;;;;25.42;14.30;;;-2.10;1.00;;;;;;7364667;19;20018;-58
2022/03/08 02:09:35;;;;;;;20.95;13.27;;;-2.10;1.00;;;;;;7362130;19;20015;-58
2022/03/08 02:12:06;;;;;;;20.90;12.70;;;-2.10;1.00;;;;;;7358650;19;20007;-59
2022/03/08 02:14:36;;;;;;;22.15;13.45;;;-2.10;1.00;;;;;;7359700;19;20020;-59
2022/03/08 02:17:07;;;;;;;22.70;14.10;;;-2.10;1.00;;;;;;7365249;19;20370;-59
2022/03/08 02:19:36;;;;;;;20.05;12.93;;;-2.10;1.00;;;;;;7360095;19;20021;-60
2022/03/08 02:22:09;;;;;;;22.10;14.05;;;-2.10;1.00;;;;;;7380150;19;20050;-59
2022/03/08 02:24:39;;;;;;;23.08;14.13;;;-2.10;1.00;;;;;;7358408;19;20011;-59
2022/03/08 02:27:10;;;;;;;23.73;13.55;;;-2.20;1.00;;;;;;7363155;19;20438;-59
2022/03/08 02:29:40;;;;;;;21.50;13.18;;;-2.20;1.00;;;;;;7362373;19;20014;-59
2022/03/08 02:32:11;;;;;;;20.60;12.48;;;-2.20;1.00;;;;;;7358276;19;20022;-59
2022/03/08 02:34:41;;;;;;;26.35;13.70;;;-2.20;1.00;;;;;;7360889;19;20096;-59
2022/03/08 02:37:14;;;;;;;23.88;12.55;;;-2.20;1.00;;;;;;7384404;19;20069;-59
2022/03/08 02:39:44;;;;;;;23.17;13.88;;;-2.10;1.00;;;;;;7360156;19;20017;-59
2022/03/08 02:42:14;;;;;;;23.45;13.40;;;-2.20;1.00;;;;;;7358682;19;20021;-59
2022/03/08 02:44:44;;;;;;;25.75;14.73;;;-2.20;1.00;;;;;;7361609;19;20085;-59
2022/03/08 02:47:14;;;;;;;26.73;15.80;;;-2.20;1.00;;;;;;7362025;19;20010;-59
2022/03/08 02:49:44;;;;;;;25.15;14.95;;;-2.20;1.00;;;;;;7362042;19;20010;-59
2022/03/08 02:52:16;;;;;;;26.45;15.43;;;-2.30;1.00;;;;;;7382347;19;20019;-59
2022/03/08 02:54:46;;;;;;;23.67;13.65;;;-2.30;1.00;;;;;;7366519;19;20078;-59
2022/03/08 02:57:16;;;;;;;26.30;15.25;;;-2.30;1.00;;;;;;7367283;19;20384;-58
2022/03/08 02:59:46;;;;;;;22.27;13.25;;;-2.40;1.00;;;;;;7368997;19;20387;-60
2022/03/08 03:02:16;;;;;;;22.02;12.68;;;-2.40;1.00;;;;;;7364433;19;20098;-60
2022/03/08 03:04:46;;;;;;;23.10;13.52;;;-2.40;1.00;;;;;;7366932;19;20051;-59
2022/03/08 03:07:19;;;;;;;23.67;13.82;;;-2.40;1.00;;;;;;7388794;19;20010;-59
2022/03/08 03:09:50;;;;;;;23.13;12.93;;;-2.40;1.00;;;;;;7366545;19;20077;-59
2022/03/08 03:12:20;;;;;;;24.48;14.73;;;-2.50;1.00;;;;;;7361005;19;20170;-58
2022/03/08 03:14:50;;;;;;;26.77;14.60;;;-2.50;1.00;;;;;;7370416;19;20011;-59
2022/03/08 03:17:20;;;;;;;22.77;13.07;;;-2.50;1.00;;;;;;7367144;19;20093;-59
2022/03/08 03:19:50;;;;;;;25.60;13.93;;;-2.40;1.00;;;;;;7366987;19;20010;-59
2022/03/08 03:22:22;;;;;;;27.63;13.65;;;-2.50;1.00;;;;;;7383243;19;20014;-59
2022/03/08 03:24:52;;;;;;;21.45;13.20;;;-2.50;1.00;;;;;;7367316;19;20539;-59
2022/03/08 03:27:22;;;;;;;24.83;13.93;;;-2.50;1.00;;;;;;7368006;19;20103;-59
2022/03/08 03:29:52;;;;;;;21.90;13.23;;;-2.60;1.00;;;;;;7366650;19;20011;-59
2022/03/08 03:32:23;;;;;;;23.25;13.25;;;-2.60;1.00;;;;;;7360124;19;20007;-59
2022/03/08 03:34:53;;;;;;;22.38;12.93;;;-2.60;1.00;;;;;;7367553;19;20014;-59
2022/03/08 03:37:26;;;;;;;25.73;13.98;;;-2.60;1.00;;;;;;7390572;19;20504;-59
2022/03/08 03:39:56;;;;;;;21.80;13.40;;;-2.70;1.00;;;;;;7365094;19;20021;-59
2022/03/08 03:42:26;;;;;;;24.67;13.70;;;-2.70;1.00;;;;;;7358933;19;20018;-59
2022/03/08 03:44:56;;;;;;;23.35;12.57;;;-2.70;1.00;;;;;;7367538;19;20482;-59
2022/03/08 03:47:26;;;;;;;20.70;13.00;;;-2.70;1.00;;;;;;7368997;19;20011;-59
2022/03/08 03:49:56;;;;;;;18.45;11.90;;;-2.70;1.00;;;;;;7366063;19;20023;-59
2022/03/08 03:52:29;;;;;;;21.85;12.45;;;-2.50;1.00;;;;;;7379248;19;20030;-59
2022/03/08 03:54:59;;;;;;;22.02;12.63;;;-2.50;1.00;;;;;;7365919;19;20082;-59
2022/03/08 03:57:29;;;;;;;21.67;13.18;;;-2.50;1.00;;;;;;7363912;19;20045;-60
2022/03/08 03:59:58;;;;;;;20.73;12.60;;;-2.50;1.00;;;;;;7366515;19;20355;-58
2022/03/08 04:02:28;;;;;;;21.55;13.00;;;-2.60;1.00;;;;;;7357354;19;20014;-58
2022/03/08 04:04:58;;;;;;;23.00;12.50;;;-2.60;1.00;;;;;;7362951;19;20768;-58
2022/03/08 04:07:32;;;;;;;21.98;12.60;;;-2.70;1.00;;;;;;7389297;19;20328;-58
2022/03/08 04:10:01;;;;;;;22.75;12.30;;;-2.60;1.00;;;;;;7365235;19;20458;-58
2022/03/08 04:12:31;;;;;;;19.13;11.82;;;-2.60;1.00;;;;;;7358241;19;20010;-58
2022/03/08 04:15:01;;;;;;;23.00;12.50;;;-2.60;1.00;;;;;;7365032;19;20105;-59
2022/03/08 04:17:31;;;;;;;22.17;12.82;;;-2.60;1.00;;;;;;7365899;19;20015;-59
2022/03/08 04:20:01;;;;;;;24.33;12.98;;;-2.60;1.00;;;;;;7367200;19;20011;-59
2022/03/08 04:22:34;;;;;;;19.77;12.50;;;-2.60;1.00;;;;;;7379750;19;20021;-59
2022/03/08 04:25:04;;;;;;;21.60;11.95;;;-2.40;1.00;;;;;;7364094;19;20011;-59
2022/03/08 04:27:34;;;;;;;21.42;11.48;;;-2.30;1.00;;;;;;7365677;19;20014;-58
2022/03/08 04:30:04;;;;;;;21.50;12.60;;;-2.30;1.00;;;;;;7366841;19;20007;-58
2022/03/08 04:32:34;;;;;;;24.83;12.90;;;-2.30;1.00;;;;;;7357904;19;20011;-58
2022/03/08 04:35:05;;;;;;;24.40;12.45;;;-2.30;1.00;;;;;;7363711;19;20086;-58
2022/03/08 04:37:38;;;;;;;20.98;11.88;;;-2.30;1.00;;;;;;7365342;19;20035;-58
2022/03/08 04:40:10;;;;;;;18.23;11.40;;;-2.10;1.00;;;;;;7386437;19;20074;-59
2022/03/08 04:42:40;;;;;;;22.00;11.93;;;-2.20;1.00;;;;;;7359943;19;20078;-58
2022/03/08 04:45:11;;;;;;;19.95;12.23;;;-2.10;1.00;;;;;;7365434;19;20809;-58
2022/03/08 04:47:41;;;;;;;21.55;12.38;;;-2.20;1.00;;;;;;7365064;19;20018;-58
2022/03/08 04:50:15;;;;;;;21.17;12.00;;;-2.20;1.00;;;;;;7366152;19;20013;-59
2022/03/08 04:52:50;;;;;;;21.08;12.50;;;-2.30;1.00;;;;;;7357745;19;20366;-60
2022/03/08 04:55:20;;;;;;;;;;;-2.50;1.00;;;;;;7386951;19;20074;-59
2022/03/08 04:57:50;;;;;;;24.08;12.73;;;-2.60;1.00;;;;;;7363518;19;20297;-59
2022/03/08 05:00:20;;;;;;;22.05;13.15;;;-2.70;1.00;;;;;;7363594;19;20010;-58
2022/03/08 05:02:50;;;;;;;19.77;12.73;;;-2.70;1.00;;;;;;7357979;19;20822;-59
2022/03/08 05:05:20;;;;;;;19.55;12.60;;;-2.70;1.00;;;;;;7364760;19;20011;-57
2022/03/08 05:07:53;;;;;;;23.45;13.88;;;-2.80;1.00;;;;;;7364947;19;20089;-59
2022/03/08 05:10:23;;;;;;;21.80;12.95;;;-2.80;1.00;;;;;;7384490;19;20014;-59
2022/03/08 05:12:52;;;;;;;20.17;12.60;;;-2.90;1.00;;;;;;7356788;19;20017;-59
2022/03/08 05:15:22;;;;;;;20.98;13.27;;;-2.90;1.00;;;;;;7362486;19;20408;-60
2022/03/08 05:17:52;;;;;;;26.88;13.88;;;-2.80;1.00;;;;;;7365580;19;20089;-58
2022/03/08 05:20:22;;;;;;;24.75;12.32;;;-2.80;1.00;;;;;;7362424;19;20111;-58
2022/03/08 05:22:56;;;;;;;27.90;12.68;;;-2.80;1.00;;;;;;7356080;19;20026;-58
2022/03/08 05:25:29;;;;;;;19.13;12.18;;;-2.60;1.00;;;;;;7385005;19;20039;-58
2022/03/08 05:27:59;;;;;;;19.83;11.75;;;-2.50;1.00;;;;;;7365235;19;20438;-58
2022/03/08 05:30:29;;;;;;;20.75;13.10;;;-2.50;1.00;;;;;;7363260;19;20077;-58
2022/03/08 05:32:59;;;;;;;25.88;13.82;;;-2.60;1.00;;;;;;7356611;19;20074;-59
2022/03/08 05:35:29;;;;;;;25.08;13.48;;;-2.70;1.00;;;;;;7362086;19;20016;-59
2022/03/08 05:38:02;;;;;;;19.73;12.30;;;-2.80;1.00;;;;;;7365085;19;20553;-58
2022/03/08 05:40:32;;;;;;;34.00;12.48;;;-2.80;1.00;;;;;;7384852;19;20749;-58
2022/03/08 05:43:02;;;;;;;26.73;13.30;;;-2.80;1.00;;;;;;7354916;19;20466;-59
2022/03/08 05:45:32;;;;;;;19.75;11.85;;;-2.90;1.00;;;;;;7362089;19;20047;-59
2022/03/08 05:48:02;;;;;;;22.77;13.48;;;-2.90;1.00;;;;;;7362945;19;20003;-59
2022/03/08 05:50:32;;;;;;;24.83;13.13;;;-2.90;1.00;;;;;;7364275;19;20130;-58
2022/03/08 05:53:05;;;;;;;23.75;12.98;;;-2.90;1.00;;;;;;7354909;19;20036;-58
2022/03/08 05:55:35;;;;;;;23.80;13.15;;;-2.80;1.00;;;;;;7361194;19;20014;-58
2022/03/08 05:58:05;;;;;;;27.73;12.98;;;-2.90;1.00;;;;;;7384373;19;20014;-59
2022/03/08 06:00:34;;;;;;;23.92;13.65;;;-2.90;1.00;;;;;;7362372;19;20006;-58
2022/03/08 06:03:04;;;;;;;23.75;12.20;;;-2.90;1.00;;;;;;7355980;19;20086;-58
2022/03/08 06:05:35;;;;;;;29.85;13.35;;;-2.90;1.00;;;;;;7362754;19;20007;-58
2022/03/08 06:08:08;;;;;;;26.67;14.85;;;-2.90;1.00;;;;;;7362262;19;20007;-58
2022/03/08 06:10:39;;;;;;;26.60;14.05;;;-2.80;1.00;;;;;;7364565;19;20013;-59
2022/03/08 06:13:08;;;;;;;25.33;14.20;;;-2.70;1.00;;;;;;7377198;19;20026;-59
2022/03/08 06:15:38;;;;;;;21.90;13.38;;;-2.60;1.00;;;;;;7360631;19;20070;-59
2022/03/08 06:18:08;;;;;;;26.08;13.88;;;-2.50;1.00;;;;;;7361878;19;20017;-59
2022/03/08 06:20:38;;;;;;;24.13;12.82;;;-2.40;1.00;;;;;;7361998;19;20097;-58
2022/03/08 06:23:11;;;;;;;29.63;12.65;;;-2.30;1.00;;;;;;7356555;19;20574;-58
2022/03/08 06:25:41;;;;;;;26.13;12.50;;;-2.20;1.00;;;;;;7360206;19;20017;-59
2022/03/08 06:28:11;;;;;;;24.80;13.18;;;-2.20;1.00;;;;;;7387918;19;20015;-59
2022/03/08 06:30:41;;;;;;;25.13;12.95;;;-2.20;1.00;;;;;;7365656;19;20019;-58
2022/03/08 06:33:11;;;;;;;44.80;13.93;;;-2.10;1.00;;;;;;7361008;19;20653;-59
2022/03/08 06:35:41;;;;;;;24.13;11.30;;;-2.00;1.00;;;;;;7367670;19;20015;-59
2022/03/08 06:38:13;;;;;;;21.95;11.68;;;-2.00;1.00;;;;;;7367093;19;20105;-60
2022/03/08 06:40:43;;;;;;;31.08;13.02;;;-1.90;1.00;;;;;;7367051;19;20010;-59
2022/03/08 06:43:13;;;;;;;31.13;11.70;;;-1.80;1.00;;;;;;7383719;19;20016;-59
2022/03/08 06:45:43;;;;;;;20.13;11.52;;;-1.70;1.00;;;;;;7368834;19;20516;-59
2022/03/08 06:48:13;;;;;;;19.67;11.05;;;-1.60;1.00;;;;;;7369826;19;20310;-58
2022/03/08 06:50:43;;;;;;;19.35;11.57;;;-1.50;1.00;;;;;;7368025;19;20087;-58
2022/03/08 06:53:15;;;;;;;20.38;11.82;;;-1.30;1.00;;;;;;7361805;19;20530;-59
2022/03/08 06:55:45;;;;;;;20.63;11.20;;;-1.30;1.00;;;;;;7369088;19;20036;-59
2022/03/08 06:58:15;;;;;;;22.10;11.35;;;-1.10;1.00;;;;;;7389422;19;20021;-59
2022/03/08 07:00:50;;;;;;;23.40;10.60;;;-1.10;1.00;;;;;;7364162;19;20347;-58
2022/03/08 07:03:20;;;;;;;21.02;10.82;;;-1.00;1.00;;;;;;7357823;19;20359;-57
2022/03/08 07:05:50;;;;;;;17.30;10.65;;;-0.80;1.00;;;;;;7366038;19;20010;-59
2022/03/08 07:08:23;;;;;;;18.73;10.65;;;-0.80;1.00;;;;;;7365568;19;20102;-59
2022/03/08 07:10:53;;;;;;;19.48;10.90;;;-0.70;1.00;;;;;;7368520;19;20083;-60
2022/03/08 07:13:22;;;;;;;20.63;10.43;;;-0.60;1.00;;;;;;7379690;19;20039;-59
2022/03/08 07:15:52;;;;;;;20.17;10.45;;;-0.50;1.00;;;;;;7366088;19;20546;-58
2022/03/08 07:18:23;;;;;;;19.42;10.50;;;-0.40;1.00;;;;;;7367175;19;20062;-59
2022/03/08 07:20:53;;;;;;;22.05;10.50;;;-0.30;1.00;;;;;;7367198;19;20045;-60
2022/03/08 07:23:26;;;;;;;17.05;9.88;;;-0.20;1.00;;;;;;7359083;19;20010;-59
2022/03/08 07:25:56;;;;;;;20.00;11.02;;;0.00;1.00;;;;;;7365901;19;20030;-58
2022/03/08 07:28:26;;;;;;;19.52;12.32;;;0.00;1.00;;;;;;7388581;19;20010;-59
2022/03/08 07:31:02;;;;;;;25.52;12.60;;;0.10;1.00;;;;;;7367028;19;20002;-59
2022/03/08 07:33:33;;;;;;;20.00;11.23;;;0.10;1.00;;;;;;7360180;19;20043;-59
2022/03/08 07:36:03;;;;;;;19.55;10.85;;;0.20;1.00;;;;;;7365611;19;20010;-59
2022/03/08 07:38:36;;;;;;;20.30;10.90;;;0.20;1.00;;;;;;7366700;19;20017;-59
2022/03/08 07:41:07;;;;;;;18.45;11.15;;;0.30;1.00;;;;;;7366555;19;20011;-60
2022/03/08 07:43:37;;;;;;;17.63;10.63;;;0.40;1.00;;;;;;7359858;19;20014;-58
2022/03/08 07:46:09;;;;;;;20.88;10.23;;;0.50;1.00;;;;;;7386932;19;20018;-58
2022/03/08 07:48:39;;;;;;;19.25;11.32;;;0.60;1.00;;;;;;7365543;19;20077;-60
2022/03/08 07:51:09;;;;;;;20.42;10.32;;;0.80;1.00;;;;;;7366082;19;20014;-59
2022/03/08 07:53:42;;;;;;;18.85;10.63;;;0.80;1.00;;;;;;7359628;19;20582;-61
2022/03/08 07:56:12;;;;;;;15.60;10.05;;;0.90;1.00;;;;;;7365736;19;20018;-58
2022/03/08 07:58:42;;;;;;;16.83;9.80;;;0.90;1.00;;;;;;7365619;19;20035;-58
2022/03/08 08:01:12;;;;;;;16.85;9.90;;;1.10;1.00;;;;;;7386594;19;20014;-58
2022/03/08 08:03:42;;;;;;;13.73;8.98;;;1.10;1.00;;;;;;7359330;19;20451;-58
2022/03/08 08:06:12;;;;;;;16.63;10.20;;;1.30;1.00;;;;;;7367313;19;20010;-58
2022/03/08 08:08:45;;;;;;;14.60;9.27;;;1.40;1.00;;;;;;7365921;19;20506;-58
2022/03/08 08:11:15;;;;;;;21.55;9.68;;;1.50;1.00;;;;;;7365094;19;20107;-60
2022/03/08 08:13:48;;;;;;;15.82;9.45;;;1.50;1.00;;;;;;7358061;19;20019;-58
2022/03/08 08:16:19;;;;;;;23.60;11.40;;;1.60;1.00;;;;;;7386391;19;20006;-58
2022/03/08 08:18:49;;;;;;;18.48;8.43;;;1.80;1.00;;;;;;7366915;19;20010;-58
2022/03/08 08:21:19;;;;;;;14.82;8.98;;;1.80;1.00;;;;;;7362450;19;20013;-58
2022/03/08 08:23:51;;;;;;;13.65;8.52;;;1.80;1.00;;;;;;7356182;19;20090;-59
2022/03/08 08:26:21;;;;;;;14.93;9.15;;;2.00;1.00;;;;;;7366427;19;20014;-59
2022/03/08 08:28:52;;;;;;;12.90;8.07;;;2.00;1.00;;;;;;7367436;19;20011;-59
2022/03/08 08:31:23;;;;;;;14.07;8.40;;;2.20;1.00;;;;;;7385105;19;20465;-58
2022/03/08 08:33:53;;;;;;;14.10;9.15;;;2.20;1.00;;;;;;7357009;19;20017;-57
2022/03/08 08:36:23;;;;;;;13.00;8.75;;;2.10;1.00;;;;;;7365230;19;20006;-58
2022/03/08 08:38:56;;;;;;;14.35;8.55;;;2.40;1.00;;;;;;7366972;19;20006;-59
2022/03/08 08:41:26;;;;;;;12.23;7.65;;;2.70;1.00;;;;;;7365254;19;20019;-59
2022/03/08 08:43:56;;;;;;;17.08;9.00;;;2.70;1.00;;;;;;7356093;19;20018;-59
2022/03/08 08:46:26;;;;;;;12.38;8.00;;;2.60;1.00;;;;;;7386202;19;20011;-59
2022/03/08 08:48:56;;;;;;;13.95;8.10;;;2.70;1.00;;;;;;7363754;19;20082;-59
2022/03/08 08:51:26;;;;;;;10.88;7.80;;;2.90;1.00;;;;;;7364656;19;20568;-58
2022/03/08 08:54:01;;;;;;;14.25;8.63;;;3.00;1.00;;;;;;7356211;19;20010;-58
2022/03/08 08:56:35;;;;;;;15.80;9.05;;;2.80;1.00;;;;;;7363651;19;20007;-59
2022/03/08 08:59:05;;;;;;;12.70;8.45;;;2.90;1.00;;;;;;7364915;19;20022;-58
2022/03/08 09:01:36;;;;;;;14.65;8.80;;;3.00;1.00;;;;;;7364502;19;20521;-59
2022/03/08 09:04:10;;;;;;;12.10;8.27;;;3.20;1.00;;;;;;7377510;19;20413;-59
2022/03/08 09:06:41;;;;;;;13.88;7.40;;;3.20;1.00;;;;;;7362820;19;20081;-59
2022/03/08 09:09:15;;;;;;;13.93;8.00;;;3.20;1.00;;;;;;7362674;19;20006;-59
2022/03/08 09:11:45;;;;;;;13.45;8.82;;;3.40;1.00;;;;;;7363955;19;20512;-59
2022/03/08 09:14:15;;;;;;;13.20;8.13;;;3.40;1.00;;;;;;7356519;19;20018;-59
2022/03/08 09:16:46;;;;;;;15.18;8.80;;;3.60;1.00;;;;;;7363117;19;20526;-59
2022/03/08 09:19:16;;;;;;;12.57;8.80;;;3.80;1.00;;;;;;7385411;19;20404;-59
2022/03/08 09:21:45;;;;;;;12.90;8.57;;;3.90;1.00;;;;;;7362412;19;20018;-59
2022/03/08 09:24:18;;;;;;;13.23;8.38;;;3.90;1.00;;;;;;7356259;19;20017;-59
2022/03/08 09:26:48;;;;;;;13.15;8.27;;;4.00;1.00;;;;;;7364699;19;20098;-60
2022/03/08 09:29:18;;;;;;;15.32;7.97;;;4.30;1.00;;;;;;7363112;19;20439;-59
2022/03/08 09:31:49;;;;;;;10.55;7.63;;;4.50;1.00;;;;;;7362659;19;20085;-58
2022/03/08 09:34:19;;;;;;;12.80;7.28;;;4.40;1.00;;;;;;7377643;19;20076;-59
2022/03/08 09:36:49;;;;;;;10.25;7.28;;;4.70;1.00;;;;;;7362983;19;20012;-59
2022/03/08 09:39:21;;;;;;;11.32;6.88;;;4.90;1.00;;;;;;7363038;19;20006;-59
2022/03/08 09:41:55;;;;;;;9.25;5.85;;;4.90;1.00;;;;;;7362136;19;20081;-58
2022/03/08 09:44:27;;;;;;;10.65;6.28;;;5.20;1.00;;;;;;7356231;19;20044;-58
2022/03/08 09:46:57;;;;;;;9.15;6.22;;;5.30;1.00;;;;;;7364287;19;20014;-59
2022/03/08 09:49:28;;;;;;;8.93;6.10;;;5.20;1.00;;;;;;7384703;19;20467;-59
2022/03/08 09:51:58;;;;;;;9.57;5.95;;;5.50;1.00;;;;;;7361123;19;20018;-59
2022/03/08 09:54:31;;;;;;;11.50;5.53;;;5.60;1.00;;;;;;7356824;19;20066;-58
2022/03/08 09:57:03;;;;;;;10.27;6.15;;;5.60;1.00;;;;;;7359839;19;20109;-60
2022/03/08 09:59:32;;;;;;;8.57;5.13;;;5.50;1.00;;;;;;7363574;19;20421;-59
2022/03/08 10:02:07;;;;;;;8.07;4.82;;;5.40;1.00;;;;;;7359108;19;20481;-60
2022/03/08 10:04:37;;;;;;;7.75;4.93;;;5.70;1.00;;;;;;7357498;19;20482;-60
2022/03/08 10:07:27;;;;;;;8.20;5.30;;;5.60;1.00;;;;;;7383938;19;20045;-60
2022/03/08 10:10:01;;;;;;;6.80;4.68;;;6.00;1.00;;;;;;7361323;19;20024;-59
2022/03/08 10:12:58;;;;;;;6.35;4.88;;;6.10;1.00;;;;;;7358611;19;20025;-59
2022/03/08 10:15:28;;;;;;;7.10;4.70;;;5.90;1.00;;;;;;7361380;19;20035;-59
2022/03/08 10:17:58;;;;;;;8.02;4.78;;;6.00;1.00;;;;;;7362100;19;20085;-59
2022/03/08 10:20:33;;;;;;;10.35;5.38;;;5.80;1.00;;;;;;7360132;19;20010;-60
2022/03/08 10:23:10;;;;;;;7.70;5.35;;;6.10;1.00;;;;;;7355530;19;20010;-59
2022/03/08 10:25:44;;;;;;;6.82;5.05;;;5.90;1.00;;;;;;7359910;19;20010;-59
2022/03/08 10:28:14;;;;;;;7.78;4.93;;;5.90;1.00;;;;;;7384043;19;20018;-59
2022/03/08 10:30:53;;;;;;;7.40;5.13;;;6.10;1.00;;;;;;7359023;19;20017;-59
2022/03/08 10:33:36;;;;;;;8.18;5.32;;;6.10;1.00;;;;;;7349479;19;20010;-60
2022/03/08 10:36:15;;;;;;;6.75;4.75;;;6.20;1.00;;;;;;7361218;19;20014;-61
2022/03/08 10:39:10;;;;;;;9.18;5.40;;;6.20;1.00;;;;;;7362791;19;20007;-60
2022/03/08 10:41:57;;;;;;;6.70;4.93;;;6.20;1.00;;;;;;7358528;19;20438;-61
2022/03/08 10:44:39;;;;;;;9.05;5.70;;;6.30;1.00;;;;;;7355358;19;20074;-59
2022/03/08 10:47:11;;;;;;;6.40;3.95;;;6.50;1.00;;;;;;7359658;19;20010;-60
2022/03/08 10:49:52;;;;;;;7.50;4.80;;;6.50;1.00;;;;;;7359516;19;20443;-61
2022/03/08 10:52:29;;;;;;;8.05;4.40;;;6.50;1.00;;;;;;7375693;19;20014;-60
2022/03/08 10:55:12;;;;;;;6.47;4.28;;;6.80;1.00;;;;;;7356016;19;20018;-60
2022/03/08 10:57:49;;;;;;;10.55;4.82;;;6.70;1.00;;;;;;7360357;19;20089;-60
2022/03/08 11:00:23;;;;;;;8.02;4.82;;;6.50;1.00;;;;;;7357368;19;20014;-60
2022/03/08 11:02:56;;;;;;;8.52;4.65;;;6.70;1.00;;;;;;7352257;19;20116;-60
2022/03/08 11:05:28;;;;;;;8.82;4.50;;;6.90;1.00;;;;;;7356132;19;20014;-61
2022/03/08 11:07:58;;;;;;;5.82;4.32;;;7.20;1.00;;;;;;7360372;19;20028;-60
2022/03/08 11:10:30;;;;;;;9.95;4.85;;;6.90;1.00;;;;;;7382056;19;20654;-60
2022/03/08 11:13:04;;;;;;;8.38;4.60;;;7.00;1.00;;;;;;7355903;19;20014;-61
2022/03/08 11:15:36;;;;;;;11.20;5.65;;;6.80;1.00;;;;;;7364488;19;20010;-61
2022/03/08 11:18:08;;;;;;;7.03;4.55;;;6.90;1.00;;;;;;7366639;19;20006;-59
2022/03/08 11:20:39;;;;;;;10.23;4.43;;;7.00;1.00;;;;;;7368718;19;20080;-60
2022/03/08 11:23:10;;;;;;;10.65;4.90;;;7.10;1.00;;;;;;7359794;19;20014;-59
2022/03/08 11:25:43;;;;;;;8.63;4.65;;;7.20;1.00;;;;;;7363758;19;20073;-60
2022/03/08 11:28:29;;;;;;;5.93;4.43;;;7.40;1.00;;;;;;7387183;19;20466;-62
2022/03/08 11:31:01;;;;;;;10.05;5.15;;;7.40;1.00;;;;;;7365747;19;20091;-61
2022/03/08 11:33:42;;;;;;;7.95;4.15;;;7.20;1.00;;;;;;7359904;19;20007;-60
2022/03/08 11:36:23;;;;;;;6.93;4.43;;;7.10;1.00;;;;;;7365255;19;20061;-61
2022/03/08 11:39:19;;;;;;;6.55;4.40;;;7.40;1.00;;;;;;7366239;19;20481;-60
2022/03/08 11:41:50;;;;;;;7.30;4.68;;;7.20;1.00;;;;;;7363874;19;20026;-60
2022/03/08 11:44:35;;;;;;;11.25;4.05;;;7.50;1.00;;;;;;7359156;19;20010;-61
2022/03/08 11:47:14;;;;;;;6.43;3.85;;;7.50;1.00;;;;;;7367772;19;20070;-60
2022/03/08 11:49:53;;;;;;;6.15;4.00;;;7.40;1.00;;;;;;7368530;19;20024;-61
2022/03/08 11:52:30;;;;;;;6.28;4.00;;;7.50;1.00;;;;;;7381504;19;20014;-59
2022/03/08 11:55:03;;;;;;;9.50;3.97;;;7.80;1.00;;;;;;7361624;19;20036;-60
2022/03/08 11:57:58;;;;;;;7.85;4.75;;;7.60;1.00;;;;;;7364312;19;20014;-60
2022/03/08 12:00:34;;;;;;;;;;;7.50;1.00;;;;;;7364535;19;20028;-59
2022/03/08 12:03:06;;;;;;;9.32;5.15;;;7.70;1.00;;;;;;7360126;19;19937;-60
2022/03/08 12:05:58;;;;;;;10.00;4.07;;;7.80;1.00;;;;;;7365484;19;20013;-60
2022/03/08 12:09:02;;;;;;;7.32;4.25;;;7.90;1.00;;;;;;7366538;19;20011;-59
2022/03/08 12:11:41;;;;;;;6.93;4.20;;;8.00;1.00;;;;;;7362310;19;20048;-60
2022/03/08 12:14:29;;;;;;;7.43;3.83;;;7.80;1.00;;;;;;7358380;19;20117;-59
2022/03/08 12:17:13;;;;;;;6.50;4.00;;;7.60;1.00;;;;;;7364071;19;20014;-59
2022/03/08 12:19:45;;;;;;;6.38;3.97;;;7.90;1.00;;;;;;7365060;19;20014;-60
2022/03/08 12:22:18;;;;;;;9.35;4.00;;;8.00;1.00;;;;;;7383066;19;20013;-60
2022/03/08 12:24:50;;;;;;;10.68;6.38;;;8.10;1.00;;;;;;7359053;19;20086;-60
2022/03/08 12:27:21;;;;;;;7.18;4.30;;;8.10;1.00;;;;;;7365260;19;20044;-60
2022/03/08 12:30:04;;;;;;;8.15;4.20;;;8.10;1.00;;;;;;7365253;19;20377;-60
2022/03/08 12:32:41;;;;;;;5.93;3.88;;;8.00;1.00;;;;;;7359110;19;20014;-59
2022/03/08 12:35:16;;;;;;;5.80;4.22;;;8.10;1.00;;;;;;7362571;19;20010;-59
2022/03/08 12:37:48;;;;;;;;;;;8.20;1.00;;;;;;7365709;19;20007;-59
2022/03/08 12:40:27;;;;;;;6.32;4.18;;;8.40;1.00;;;;;;7385062;19;19921;-60
2022/03/08 12:43:00;;;;;;;6.35;4.22;;;8.50;1.00;;;;;;7357871;19;20018;-60
2022/03/08 12:45:32;;;;;;;7.25;4.57;;;8.70;1.00;;;;;;7361282;19;20726;-61
2022/03/08 12:48:07;;;;;;;8.00;4.72;;;8.80;1.00;;;;;;7365400;19;20021;-60
2022/03/08 12:50:39;;;;;;;5.97;4.32;;;8.70;1.00;;;;;;7363409;19;20002;-61
2022/03/08 12:53:10;;;;;;;7.95;4.30;;;8.30;1.00;;;;;;7360130;19;20007;-60
2022/03/08 12:55:43;;;;;;;6.35;4.15;;;8.30;1.00;;;;;;7361902;19;20002;-60
2022/03/08 12:58:14;;;;;;;6.88;3.83;;;8.70;1.00;;;;;;7385118;19;20014;-60
2022/03/08 13:00:46;;;;;;;8.20;4.10;;;8.80;1.00;;;;;;7363378;19;20018;-60
2022/03/08 13:03:20;;;;;;;6.07;4.22;;;8.90;1.00;;;;;;7357001;19;20025;-61
2022/03/08 13:05:52;;;;;;;5.30;3.90;;;8.60;1.00;;;;;;7363288;19;20010;-61
2022/03/08 13:08:23;;;;;;;7.72;4.30;;;8.60;1.00;;;;;;7364190;19;20029;-61
2022/03/08 13:10:55;;;;;;;5.97;3.92;;;8.50;1.00;;;;;;7363033;19;20015;-61
2022/03/08 13:13:46;;;;;;;7.15;4.20;;;8.80;1.00;;;;;;7356129;19;20012;-61